Time;durP1;ratioP1;P1;durP2;ratioP2;P2;SDS_P1;SDS_P2;PMS_P1;PMS_P2;Temp;Humidity;BMP_temperature;BMP_pressure;BME280_temperature;BME280_humidity;BME280_pressure;Samples;Min_cycle;Max_cycle;Signal;HPM_P1;HPM_P2
2021/12/24 00:00:30;;;;;;;74.82;38.95;;;7.40;99.90;;;;;;5092523;28;20038;-72
2021/12/24 00:02:56;;;;;;;73.60;38.28;;;7.40;99.90;;;;;;5092647;28;20413;-71
2021/12/24 00:05:23;;;;;;;83.80;41.55;;;7.40;99.90;;;;;;5075749;28;20111;-71
2021/12/24 00:07:48;;;;;;;80.03;38.53;;;7.40;99.90;;;;;;5092351;28;20044;-73
2021/12/24 00:10:15;;;;;;;80.60;39.75;;;7.40;99.90;;;;;;5092709;28;20443;-72
2021/12/24 00:12:47;;;;;;;95.88;46.70;;;7.40;99.90;;;;;;5092476;28;20025;-70
2021/12/24 00:15:34;;;;;;;93.00;45.00;;;7.50;99.90;;;;;;5092753;28;20434;-72
2021/12/24 00:18:08;;;;;;;98.60;46.55;;;7.50;99.90;;;;;;5092416;28;20024;-72
2021/12/24 00:35:05;;;;;;;78.22;42.47;;;7.50;99.90;;;;;;5092374;28;20027;-72
2021/12/24 00:37:07;;;;;;;63.35;35.00;;;7.60;99.90;;;;;;5097335;28;20024;-72
2021/12/24 00:39:38;;;;;;;58.05;31.48;;;7.60;99.90;;;;;;5096653;28;20024;-72
2021/12/24 00:42:04;;;;;;;60.15;32.17;;;7.60;99.90;;;;;;5097563;28;20024;-72
2021/12/24 00:44:30;;;;;;;57.28;30.92;;;7.60;99.90;;;;;;5096148;28;20111;-72
2021/12/24 00:46:55;;;;;;;63.50;33.63;;;7.60;99.90;;;;;;5096242;28;20024;-71
2021/12/24 00:49:21;;;;;;;63.47;34.83;;;7.70;99.90;;;;;;5079434;28;20031;-72
2021/12/24 00:57:14;;;;;;;76.40;37.60;;;7.70;99.90;;;;;;5116979;28;20457;-71
2021/12/24 00:59:39;;;;;;;71.20;37.63;;;7.70;99.90;;;;;;5113921;28;20476;-72
2021/12/24 01:02:05;;;;;;;72.18;38.60;;;7.70;99.90;;;;;;5132344;28;20418;-72
2021/12/24 01:04:31;;;;;;;72.88;37.92;;;7.70;99.90;;;;;;5114054;28;20027;-73
2021/12/24 01:06:57;;;;;;;74.60;38.15;;;7.80;99.90;;;;;;5131668;28;20387;-73
2021/12/24 01:09:22;;;;;;;79.97;40.58;;;7.80;99.90;;;;;;5113625;28;20035;-72
2021/12/24 01:11:48;;;;;;;83.32;41.05;;;7.80;99.90;;;;;;5096345;28;20115;-73
2021/12/24 01:14:14;;;;;;;85.05;42.92;;;7.80;99.90;;;;;;5096198;28;20088;-72
2021/12/24 01:16:48;;;;;;;89.55;42.58;;;7.80;99.90;;;;;;5132098;28;20030;-73
2021/12/24 01:19:19;;;;;;;80.25;40.85;;;7.80;99.90;;;;;;5132037;28;20050;-72
2021/12/24 01:22:20;;;;;;;89.10;41.63;;;7.80;99.90;;;;;;5131753;28;20019;-72
2021/12/24 01:24:39;;;;;;;94.22;44.22;;;7.80;99.90;;;;;;5131195;28;20027;-72
2021/12/24 01:27:22;;;;;;;87.20;44.53;;;7.90;99.90;;;;;;5114706;28;20019;-73
2021/12/24 01:37:55;;;;;;;88.70;44.03;;;8.00;99.90;;;;;;5130925;28;20020;-73
2021/12/24 01:40:38;;;;;;;100.07;48.05;;;8.00;99.90;;;;;;5114499;28;20501;-73
2021/12/24 01:43:04;;;;;;;90.75;47.17;;;7.90;99.90;;;;;;5098049;28;20027;-73
2021/12/24 01:45:33;;;;;;;93.53;46.72;;;8.00;99.90;;;;;;5095717;28;20428;-72
2021/12/24 01:48:03;;;;;;;99.78;48.65;;;8.00;99.90;;;;;;5131229;28;20464;-72
2021/12/24 01:50:32;;;;;;;90.25;45.97;;;8.00;99.90;;;;;;5131443;28;20084;-72
2021/12/24 01:52:58;;;;;;;83.88;45.53;;;8.10;99.90;;;;;;5112246;28;20039;-73
2021/12/24 01:55:24;;;;;;;98.15;48.15;;;8.10;99.90;;;;;;5131375;28;20095;-72
2021/12/24 01:57:50;;;;;;;96.22;49.03;;;8.10;99.90;;;;;;5113148;28;20062;-72
2021/12/24 02:00:22;;;;;;;94.82;47.85;;;8.10;99.90;;;;;;5130970;28;20051;-73
2021/12/24 02:02:48;;;;;;;90.35;47.60;;;8.10;99.90;;;;;;5130985;28;20111;-73
2021/12/24 02:05:14;;;;;;;92.10;48.72;;;8.10;99.90;;;;;;5120345;28;20074;-72
2021/12/24 02:07:40;;;;;;;95.15;48.70;;;8.10;99.90;;;;;;5099224;28;20020;-73
2021/12/24 02:10:09;;;;;;;97.97;50.42;;;8.10;99.90;;;;;;5098932;28;20027;-72
2021/12/24 02:12:35;;;;;;;102.03;50.00;;;8.10;99.90;;;;;;5098483;28;20028;-72
2021/12/24 02:15:10;;;;;;;99.28;49.80;;;8.10;99.90;;;;;;5099038;28;20016;-73
2021/12/24 02:28:42;;;;;;;93.47;49.40;;;8.20;99.90;;;;;;5101090;28;20059;-72
2021/12/24 02:31:11;;;;;;;99.93;49.05;;;8.20;99.90;;;;;;5116432;28;20065;-72
2021/12/24 02:33:37;;;;;;;93.78;48.42;;;8.20;99.90;;;;;;5081282;28;20028;-72
2021/12/24 02:36:04;;;;;;;97.22;47.10;;;8.20;99.90;;;;;;5116911;28;20019;-73
2021/12/24 02:38:30;;;;;;;107.45;53.88;;;8.10;99.90;;;;;;5116873;28;20031;-73
2021/12/24 02:40:56;;;;;;;113.03;54.45;;;8.20;99.90;;;;;;5116844;28;20019;-73
2021/12/24 02:43:23;;;;;;;105.90;53.15;;;8.10;99.90;;;;;;5098477;28;20611;-73
2021/12/24 02:45:52;;;;;;;106.25;52.97;;;8.20;99.90;;;;;;5098538;28;20373;-71
2021/12/24 02:53:57;;;;;;;105.00;52.30;;;8.20;99.90;;;;;;5115628;28;20052;-70
2021/12/24 02:56:25;;;;;;;111.07;51.83;;;8.20;99.90;;;;;;5099346;28;20023;-70
2021/12/24 02:58:51;;;;;;;105.72;52.33;;;8.20;99.90;;;;;;5081347;28;20027;-72
2021/12/24 03:01:21;;;;;;;110.20;54.20;;;8.20;99.90;;;;;;5116430;28;20027;-72
2021/12/24 03:03:48;;;;;;;130.63;59.92;;;8.30;99.90;;;;;;5097940;28;20023;-72
2021/12/24 03:06:16;;;;;;;117.20;58.35;;;8.30;99.90;;;;;;5080723;28;20380;-73
2021/12/24 03:08:42;;;;;;;125.82;59.40;;;8.30;99.90;;;;;;5097913;28;20020;-72
2021/12/24 03:11:07;;;;;;;123.45;57.28;;;8.30;99.90;;;;;;5098147;28;20050;-72
2021/12/24 03:13:35;;;;;;;126.82;57.53;;;8.30;99.90;;;;;;5097268;28;20031;-72
2021/12/24 03:16:02;;;;;;;128.40;59.05;;;8.30;99.90;;;;;;5079603;28;20381;-72
2021/12/24 03:18:30;;;;;;;145.00;64.80;;;8.30;99.90;;;;;;5097238;28;20473;-72
2021/12/24 03:21:10;;;;;;;143.75;64.85;;;8.30;99.90;;;;;;5115715;28;20106;-72
2021/12/24 03:23:42;;;;;;;144.88;63.80;;;8.30;99.90;;;;;;5081936;28;20019;-72
2021/12/24 03:26:13;;;;;;;150.35;66.18;;;8.30;99.90;;;;;;5115898;28;20027;-72
2021/12/24 03:28:39;;;;;;;154.90;65.57;;;8.30;99.90;;;;;;5097355;28;20027;-72
2021/12/24 03:31:07;;;;;;;157.45;67.40;;;8.40;99.90;;;;;;5080056;28;20538;-72
2021/12/24 03:33:34;;;;;;;146.50;66.05;;;8.30;99.90;;;;;;5097245;28;20102;-72
2021/12/24 03:36:01;;;;;;;146.98;65.47;;;8.30;99.90;;;;;;5097228;28;20020;-72
2021/12/24 03:38:27;;;;;;;149.70;66.55;;;8.40;99.90;;;;;;5096855;28;20023;-72
2021/12/24 03:40:53;;;;;;;153.20;68.53;;;8.40;99.90;;;;;;5096854;28;20166;-72
2021/12/24 03:43:18;;;;;;;148.10;66.15;;;8.40;99.90;;;;;;5097356;28;20542;-72
2021/12/24 03:45:57;;;;;;;146.00;65.75;;;8.40;99.90;;;;;;5115532;28;20160;-72
2021/12/24 03:48:37;;;;;;;150.88;67.13;;;8.40;99.90;;;;;;5096683;28;20088;-72
2021/12/24 03:51:21;;;;;;;141.80;65.13;;;8.40;99.90;;;;;;5098881;28;20038;-72
2021/12/24 03:56:35;;;;;;;132.52;62.67;;;8.50;99.90;;;;;;5114597;28;20018;-72
2021/12/24 03:59:01;;;;;;;131.15;62.63;;;8.50;99.90;;;;;;5115264;28;20020;-72
2021/12/24 04:01:26;;;;;;;127.93;60.03;;;8.50;99.90;;;;;;5114995;28;20019;-71
2021/12/24 04:03:52;;;;;;;132.48;62.22;;;8.50;99.90;;;;;;5096874;28;20098;-72
2021/12/24 04:06:18;;;;;;;126.78;60.90;;;8.50;99.90;;;;;;5114874;28;20047;-72
2021/12/24 04:08:44;;;;;;;127.38;61.63;;;8.50;99.90;;;;;;5079354;28;20507;-72
2021/12/24 04:11:11;;;;;;;129.77;60.00;;;8.50;99.90;;;;;;5115066;28;20373;-72
2021/12/24 04:13:37;;;;;;;121.78;60.78;;;8.50;99.90;;;;;;5096521;28;20023;-72
2021/12/24 04:16:04;;;;;;;127.32;59.30;;;8.50;99.90;;;;;;5096643;28;20047;-72
2021/12/24 04:26:39;;;;;;;122.65;58.25;;;8.50;99.90;;;;;;5111213;28;20116;-72
2021/12/24 04:29:06;;;;;;;125.63;56.97;;;8.60;99.90;;;;;;5093633;28;20477;-72
2021/12/24 04:31:41;;;;;;;118.50;56.33;;;8.50;99.90;;;;;;5110444;28;20028;-72
2021/12/24 04:34:07;;;;;;;119.72;54.42;;;8.50;99.90;;;;;;5110870;28;20020;-73
2021/12/24 04:39:36;;;;;;;125.15;57.42;;;8.60;99.90;;;;;;5112251;27;20105;-72
2021/12/24 05:01:09;;;;;;;137.25;60.83;;;8.60;99.90;;;;;;5110038;28;20477;-72
2021/12/24 05:01:32;;;;;;;133.07;58.72;;;8.60;99.90;;;;;;5110867;28;20542;-72
2021/12/24 05:04:01;;;;;;;124.03;57.00;;;8.70;99.90;;;;;;5110324;28;20028;-72
2021/12/24 05:06:34;;;;;;;125.57;58.67;;;8.70;99.90;;;;;;5110915;28;20024;-72
2021/12/24 05:09:07;;;;;;;132.05;61.30;;;8.70;99.90;;;;;;5093714;28;20023;-72
2021/12/24 05:11:33;;;;;;;;;;;8.70;99.90;;;;;;5111307;28;20024;-71
2021/12/24 05:13:59;;;;;;;133.18;58.35;;;8.60;99.90;;;;;;5110768;28;20010;-72
2021/12/24 05:16:36;;;;;;;137.13;62.92;;;8.70;99.90;;;;;;5110726;28;20035;-72
2021/12/24 05:21:33;;;;;;;148.00;67.57;;;8.70;99.90;;;;;;5109869;28;20111;-72
2021/12/24 05:21:48;;;;;;;152.02;66.57;;;8.70;99.90;;;;;;5109466;28;20027;-72
2021/12/24 05:24:17;;;;;;;152.68;68.38;;;8.70;99.90;;;;;;5111143;28;20020;-72
2021/12/24 05:26:45;;;;;;;163.73;69.57;;;8.70;99.90;;;;;;5111103;28;20099;-73
2021/12/24 05:29:14;;;;;;;149.77;68.20;;;8.70;99.90;;;;;;5091957;28;20031;-73
2021/12/24 05:31:39;;;;;;;155.93;69.10;;;8.70;99.90;;;;;;5111014;28;20480;-72
2021/12/24 05:34:05;;;;;;;154.70;69.43;;;8.70;99.90;;;;;;5109123;28;20020;-72
2021/12/24 05:36:31;;;;;;;146.93;64.90;;;8.80;99.90;;;;;;5109744;28;20020;-73
2021/12/24 05:38:56;;;;;;;143.65;66.68;;;8.80;99.90;;;;;;5091945;28;20036;-73
2021/12/24 05:41:22;;;;;;;141.32;62.45;;;8.80;99.90;;;;;;5110546;28;20415;-73
2021/12/24 05:43:49;;;;;;;135.80;62.22;;;;;;;;;;5110503;28;20099;-73
2021/12/24 05:46:15;;;;;;;136.15;61.65;;;8.80;99.90;;;;;;5109286;28;20073;-74
2021/12/24 05:48:40;;;;;;;132.25;61.03;;;8.70;99.90;;;;;;5106372;28;20024;-73
2021/12/24 05:51:06;;;;;;;123.53;57.70;;;8.70;99.90;;;;;;5095973;28;20028;-73
2021/12/24 05:53:32;;;;;;;119.55;56.78;;;8.70;99.90;;;;;;5095974;28;20477;-73
2021/12/24 05:55:57;;;;;;;120.93;56.60;;;8.80;99.90;;;;;;5095997;28;20103;-74
2021/12/24 05:58:23;;;;;;;120.10;56.50;;;8.80;99.90;;;;;;5095154;28;20028;-73
2021/12/24 06:00:49;;;;;;;110.90;56.28;;;8.80;99.90;;;;;;5095195;28;20106;-73
2021/12/24 06:03:16;;;;;;;115.03;57.95;;;8.80;99.90;;;;;;5112553;28;20098;-73
2021/12/24 06:05:43;;;;;;;115.07;55.55;;;8.90;99.90;;;;;;5078226;28;20020;-72
2021/12/24 06:08:09;;;;;;;103.40;52.83;;;8.90;99.90;;;;;;5094849;28;20083;-72
2021/12/24 06:10:35;;;;;;;108.60;54.58;;;8.80;99.90;;;;;;5096388;28;20380;-74
2021/12/24 06:13:03;;;;;;;108.15;54.58;;;8.80;99.90;;;;;;5078068;28;20091;-74
2021/12/24 06:15:28;;;;;;;107.78;52.30;;;8.80;99.90;;;;;;5096067;28;20031;-73
2021/12/24 06:17:57;;;;;;;106.60;53.08;;;8.90;99.90;;;;;;5077905;28;20024;-74
2021/12/24 06:20:25;;;;;;;104.85;52.50;;;8.80;99.90;;;;;;5095178;28;20031;-73
2021/12/24 06:22:51;;;;;;;95.45;50.60;;;8.80;99.90;;;;;;5112152;28;20047;-73
2021/12/24 06:25:19;;;;;;;100.38;52.83;;;8.90;99.90;;;;;;5095269;28;20462;-73
2021/12/24 06:27:46;;;;;;;102.10;53.10;;;8.90;99.90;;;;;;5078431;28;20347;-73
2021/12/24 06:30:14;;;;;;;106.53;53.20;;;8.90;99.90;;;;;;5095180;28;20027;-73
2021/12/24 06:32:39;;;;;;;99.40;51.63;;;8.90;99.90;;;;;;5094459;28;20028;-74
2021/12/24 06:35:09;;;;;;;109.47;51.92;;;8.90;99.90;;;;;;5094519;28;20024;-73
2021/12/24 06:37:35;;;;;;;106.68;51.70;;;8.80;99.90;;;;;;5077702;28;20055;-72
2021/12/24 06:40:01;;;;;;;109.68;56.90;;;8.80;99.90;;;;;;5077416;28;20111;-72
2021/12/24 06:42:27;;;;;;;104.13;52.42;;;8.80;99.90;;;;;;5077668;28;20154;-73
2021/12/24 06:44:53;;;;;;;109.55;53.45;;;8.90;99.90;;;;;;5094187;28;20106;-73
2021/12/24 06:47:19;;;;;;;119.00;55.85;;;8.90;99.90;;;;;;5094582;28;20477;-73
2021/12/24 06:49:44;;;;;;;113.05;55.92;;;8.80;99.90;;;;;;5094775;28;20048;-73
2021/12/24 06:52:10;;;;;;;112.43;57.15;;;8.90;99.90;;;;;;5094079;28;20491;-74
2021/12/24 06:54:35;;;;;;;114.32;56.17;;;8.90;99.90;;;;;;5095829;28;20035;-73
2021/12/24 06:57:01;;;;;;;111.18;54.70;;;8.90;99.90;;;;;;5094593;28;20031;-73
2021/12/24 06:59:27;;;;;;;116.05;57.80;;;8.80;99.90;;;;;;5094334;28;20016;-73
2021/12/24 07:01:53;;;;;;;113.65;56.17;;;8.90;99.90;;;;;;5094694;28;20024;-73
2021/12/24 07:04:18;;;;;;;110.55;56.42;;;8.90;99.90;;;;;;5094102;28;20032;-74
2021/12/24 07:06:45;;;;;;;118.63;60.03;;;9.00;99.90;;;;;;5095558;28;20032;-74
2021/12/24 07:09:12;;;;;;;118.10;58.47;;;8.90;99.90;;;;;;5095262;28;20074;-74
2021/12/24 07:11:37;;;;;;;118.40;58.65;;;8.90;99.90;;;;;;5093663;28;20020;-74
2021/12/24 07:14:03;;;;;;;124.35;58.08;;;8.90;99.90;;;;;;5094319;28;20031;-74
2021/12/24 07:16:28;;;;;;;116.80;59.60;;;8.90;99.90;;;;;;5095392;28;20479;-74
2021/12/24 07:18:54;;;;;;;113.03;57.42;;;8.90;99.90;;;;;;5094093;28;20081;-74
2021/12/24 07:21:19;;;;;;;120.65;59.38;;;8.90;99.90;;;;;;5076669;28;20058;-74
2021/12/24 07:23:45;;;;;;;124.68;60.00;;;8.90;99.90;;;;;;5095283;28;20020;-74
2021/12/24 07:26:10;;;;;;;119.57;60.53;;;8.90;99.90;;;;;;5093438;28;20389;-74
2021/12/24 07:28:36;;;;;;;127.65;61.70;;;8.90;99.90;;;;;;5095167;28;20032;-74
2021/12/24 07:31:01;;;;;;;123.97;59.92;;;8.90;99.90;;;;;;5076468;28;20032;-74
2021/12/24 07:33:27;;;;;;;125.93;60.13;;;8.90;99.90;;;;;;5095110;28;20466;-73
2021/12/24 07:35:52;;;;;;;127.85;59.47;;;8.90;99.90;;;;;;5076304;28;20066;-74
2021/12/24 07:38:18;;;;;;;126.68;60.65;;;8.90;99.90;;;;;;5094400;28;20073;-73
2021/12/24 07:40:45;;;;;;;130.00;61.60;;;8.90;99.90;;;;;;5093096;28;20020;-73
2021/12/24 07:43:10;;;;;;;129.77;64.72;;;8.90;99.90;;;;;;5093488;28;20060;-73
2021/12/24 07:45:38;;;;;;;133.25;64.38;;;8.90;99.90;;;;;;5093304;28;20052;-74
2021/12/24 07:48:27;;;;;;;129.10;62.53;;;8.90;99.90;;;;;;5093830;28;20024;-73
2021/12/24 07:53:35;;;;;;;119.20;59.40;;;8.90;99.90;;;;;;5094001;28;20020;-74
2021/12/24 07:56:00;;;;;;;128.32;59.20;;;8.90;99.90;;;;;;5076240;28;20020;-74
2021/12/24 07:58:26;;;;;;;125.97;61.60;;;8.90;99.90;;;;;;5093394;28;20461;-74
2021/12/24 08:00:52;;;;;;;116.75;57.28;;;8.90;99.90;;;;;;5092778;28;20028;-74
2021/12/24 08:03:18;;;;;;;121.57;60.38;;;8.90;99.90;;;;;;5093035;28;20380;-74
2021/12/24 08:05:46;;;;;;;118.38;56.85;;;8.90;99.90;;;;;;5092944;28;20081;-74
2021/12/24 08:08:12;;;;;;;114.57;57.08;;;8.90;99.90;;;;;;5093071;28;20376;-74
2021/12/24 08:10:38;;;;;;;118.85;55.33;;;9.00;99.90;;;;;;5093280;28;20027;-74
2021/12/24 08:13:04;;;;;;;113.57;54.78;;;8.90;99.90;;;;;;5092918;28;20031;-74
2021/12/24 08:15:30;;;;;;;113.68;56.33;;;9.00;99.90;;;;;;5093225;28;20056;-74
2021/12/24 08:17:55;;;;;;;113.20;54.70;;;9.00;99.90;;;;;;5093030;28;20070;-74
2021/12/24 08:20:24;;;;;;;126.95;56.95;;;9.00;99.90;;;;;;5094061;28;20032;-74
2021/12/24 08:22:51;;;;;;;109.18;55.42;;;9.00;99.90;;;;;;5093190;28;20476;-74
2021/12/24 08:25:18;;;;;;;117.70;54.47;;;9.00;99.90;;;;;;5094263;28;20072;-74
2021/12/24 08:27:44;;;;;;;119.32;55.78;;;9.00;99.90;;;;;;5092390;28;20027;-74
2021/12/24 08:30:10;;;;;;;115.20;57.17;;;8.90;99.90;;;;;;5094242;28;20024;-75
2021/12/24 08:32:39;;;;;;;127.00;59.67;;;8.90;99.90;;;;;;5092347;28;20053;-75
2021/12/24 08:35:07;;;;;;;120.50;55.80;;;9.00;99.90;;;;;;5092322;28;20028;-75
2021/12/24 08:37:33;;;;;;;120.20;56.80;;;8.90;99.90;;;;;;5092419;28;20052;-75
2021/12/24 08:39:59;;;;;;;118.07;55.95;;;8.90;99.90;;;;;;5092667;28;20403;-75
2021/12/24 08:42:24;;;;;;;111.60;55.08;;;8.90;99.90;;;;;;5093101;28;20458;-74
2021/12/24 08:44:51;;;;;;;118.82;55.70;;;8.90;99.90;;;;;;5093737;28;20024;-74
2021/12/24 08:47:16;;;;;;;115.80;54.38;;;8.90;99.90;;;;;;5092591;28;20024;-75
2021/12/24 08:49:42;;;;;;;106.32;50.90;;;8.90;99.90;;;;;;5092888;28;20534;-75
2021/12/24 08:52:08;;;;;;;110.22;54.25;;;8.90;99.90;;;;;;5075686;28;20072;-74
2021/12/24 08:54:33;;;;;;;106.43;51.03;;;8.90;99.90;;;;;;5093394;28;20044;-75
2021/12/24 08:57:00;;;;;;;119.85;52.75;;;8.90;99.90;;;;;;5092122;28;20035;-74
2021/12/24 08:59:25;;;;;;;111.25;52.75;;;8.90;99.90;;;;;;5075279;28;20073;-74
2021/12/24 09:01:52;;;;;;;115.25;51.70;;;8.90;99.90;;;;;;5092088;28;20424;-75
2021/12/24 09:04:17;;;;;;;104.80;50.65;;;8.80;99.90;;;;;;5075245;28;20024;-74
2021/12/24 09:06:43;;;;;;;103.65;47.95;;;8.90;99.90;;;;;;5093789;28;20020;-74
2021/12/24 09:09:10;;;;;;;89.97;45.22;;;8.90;99.90;;;;;;5075262;28;20024;-74
2021/12/24 09:11:38;;;;;;;91.60;43.33;;;8.90;99.90;;;;;;5093772;28;20418;-75
2021/12/24 09:14:04;;;;;;;90.35;41.67;;;8.90;99.90;;;;;;5093477;28;20358;-74
2021/12/24 09:16:30;;;;;;;83.88;41.10;;;8.90;99.90;;;;;;5075219;28;20028;-74
2021/12/24 09:19:02;;;;;;;80.20;39.70;;;8.90;99.90;;;;;;5108889;28;20031;-74
2021/12/24 09:21:28;;;;;;;81.18;38.90;;;8.90;99.90;;;;;;5092658;28;20480;-74
2021/12/24 09:23:55;;;;;;;62.65;34.22;;;9.00;99.90;;;;;;5075400;28;20020;-74
2021/12/24 09:26:27;;;;;;;70.60;36.13;;;9.00;99.90;;;;;;5096380;28;20095;-74
2021/12/24 09:28:54;;;;;;;69.57;34.85;;;9.00;99.90;;;;;;5079752;28;20469;-73
2021/12/24 09:31:20;;;;;;;69.15;34.85;;;9.00;99.90;;;;;;5095668;28;20031;-74
2021/12/24 09:33:45;;;;;;;72.43;33.35;;;9.00;99.90;;;;;;5097161;28;20507;-74
2021/12/24 09:36:11;;;;;;;58.28;30.23;;;9.00;99.90;;;;;;5113199;28;20090;-74
2021/12/24 09:38:37;;;;;;;55.55;26.95;;;9.00;99.90;;;;;;5095411;28;20512;-74
2021/12/24 09:41:03;;;;;;;62.95;28.95;;;9.00;99.90;;;;;;5095421;28;20103;-74
2021/12/24 09:43:28;;;;;;;58.20;26.80;;;9.00;99.90;;;;;;5079091;28;20421;-74
2021/12/24 09:45:54;;;;;;;47.08;24.27;;;9.00;99.90;;;;;;5096038;28;20114;-73
2021/12/24 09:48:19;;;;;;;42.33;23.63;;;9.00;99.90;;;;;;5095933;28;20032;-74
2021/12/24 09:50:45;;;;;;;46.42;23.02;;;9.00;99.90;;;;;;5078410;28;20109;-74
2021/12/24 09:53:12;;;;;;;50.67;23.42;;;9.00;99.90;;;;;;5095885;28;20098;-74
2021/12/24 09:55:37;;;;;;;44.60;21.88;;;9.00;99.90;;;;;;5078343;28;20030;-74
2021/12/24 09:58:03;;;;;;;46.15;22.77;;;9.00;99.90;;;;;;5095179;28;20099;-74
2021/12/24 10:00:29;;;;;;;45.50;22.35;;;9.00;99.90;;;;;;5112593;28;20024;-74
2021/12/24 10:02:56;;;;;;;48.33;24.23;;;9.00;99.90;;;;;;5096860;28;20027;-74
2021/12/24 10:05:33;;;;;;;42.75;22.88;;;9.00;99.90;;;;;;5078661;28;20028;-74
2021/12/24 10:08:07;;;;;;;52.53;25.25;;;9.00;99.90;;;;;;5078308;28;20431;-74
2021/12/24 10:10:36;;;;;;;56.42;26.73;;;8.90;99.90;;;;;;5113185;27;20064;-74
2021/12/24 10:13:39;;;;;;;63.30;26.80;;;8.90;99.90;;;;;;5094879;28;20393;-74
2021/12/24 10:16:13;;;;;;;57.92;28.05;;;8.90;99.90;;;;;;5111623;28;20020;-74
2021/12/24 10:18:43;;;;;;;57.88;27.73;;;8.90;99.90;;;;;;5112705;27;20052;-74
2021/12/24 10:23:56;;;;;;;59.22;27.67;;;8.90;99.90;;;;;;5112104;27;20429;-74
2021/12/24 10:26:28;;;;;;;62.58;30.10;;;8.80;99.90;;;;;;5110488;28;20107;-74
2021/12/24 10:29:00;;;;;;;69.40;31.13;;;8.80;99.90;;;;;;5093127;28;20065;-74
2021/12/24 10:31:30;;;;;;;66.75;32.92;;;8.70;99.90;;;;;;5093776;28;20382;-74
2021/12/24 10:34:18;;;;;;;74.68;34.63;;;8.70;99.90;;;;;;5110814;28;20445;-73
2021/12/24 10:36:57;;;;;;;87.55;38.78;;;8.60;99.90;;;;;;5109837;28;20485;-74
2021/12/24 10:42:37;;;;;;;90.20;41.38;;;8.60;99.90;;;;;;5112134;27;20869;-74
2021/12/24 10:45:20;;;;;;;91.20;43.58;;;8.60;99.90;;;;;;5093468;28;20020;-74
2021/12/24 10:47:46;;;;;;;96.85;43.40;;;8.60;99.90;;;;;;5093259;28;20065;-74
2021/12/24 10:53:31;;;;;;;100.00;44.88;;;8.60;99.90;;;;;;5112213;27;20359;-74
2021/12/24 10:55:54;;;;;;;100.15;43.67;;;8.50;99.90;;;;;;5110149;28;20485;-74
2021/12/24 10:58:23;;;;;;;100.95;44.08;;;8.60;99.90;;;;;;5093206;28;20035;-74
2021/12/24 11:00:54;;;;;;;93.45;44.55;;;8.60;99.90;;;;;;5093377;28;20028;-74
2021/12/24 11:03:23;;;;;;;87.47;40.35;;;8.60;99.90;;;;;;5093293;28;20024;-74
2021/12/24 11:05:53;;;;;;;85.28;36.28;;;8.60;99.90;;;;;;5110466;28;20028;-73
2021/12/24 11:08:22;;;;;;;68.18;29.83;;;8.70;99.90;;;;;;5092918;28;20019;-74
2021/12/24 11:10:50;;;;;;;56.35;24.17;;;8.70;99.90;;;;;;5110199;28;20412;-74
2021/12/24 11:13:20;;;;;;;58.72;23.92;;;8.80;99.90;;;;;;5109903;28;20030;-73
2021/12/24 11:15:49;;;;;;;56.42;22.67;;;8.90;99.90;;;;;;5092572;28;20426;-74
2021/12/24 11:18:24;;;;;;;41.40;18.27;;;9.00;99.90;;;;;;5092918;28;20024;-74
2021/12/24 11:20:53;;;;;;;38.33;17.75;;;9.00;99.90;;;;;;5092866;28;20016;-74
2021/12/24 11:23:20;;;;;;;43.58;17.23;;;9.10;99.90;;;;;;5109955;28;20020;-74
2021/12/24 11:25:49;;;;;;;37.00;17.20;;;9.10;99.90;;;;;;5092563;28;20027;-73
2021/12/24 11:28:16;;;;;;;42.70;17.45;;;9.20;99.90;;;;;;5092574;28;20032;-74
2021/12/24 11:30:47;;;;;;;43.25;18.58;;;9.10;99.90;;;;;;5092438;28;20023;-74
2021/12/24 11:33:15;;;;;;;45.65;19.20;;;9.10;99.90;;;;;;5092397;28;20034;-73
2021/12/24 11:35:41;;;;;;;47.58;18.80;;;9.10;99.90;;;;;;5109390;28;20020;-73
2021/12/24 11:38:07;;;;;;;49.25;21.63;;;9.10;99.90;;;;;;5092938;28;20412;-74
2021/12/24 11:40:33;;;;;;;45.28;20.63;;;9.10;99.90;;;;;;5109871;28;20020;-74
2021/12/24 11:43:03;;;;;;;48.40;22.15;;;9.10;99.90;;;;;;5092348;28;20092;-73
2021/12/24 11:45:31;;;;;;;55.90;25.23;;;9.10;99.90;;;;;;5093104;28;20056;-74
2021/12/24 11:47:57;;;;;;;60.22;28.33;;;9.00;99.90;;;;;;5092382;28;20452;-73
2021/12/24 11:50:24;;;;;;;68.53;30.17;;;8.90;99.90;;;;;;5092125;28;20078;-73
2021/12/24 11:52:53;;;;;;;70.10;30.83;;;8.90;99.90;;;;;;5091892;28;20093;-73
2021/12/24 11:55:20;;;;;;;80.18;36.35;;;8.90;99.90;;;;;;5109684;28;20019;-73
2021/12/24 11:57:53;;;;;;;79.80;35.40;;;8.80;99.90;;;;;;5109330;28;20099;-73
2021/12/24 12:00:25;;;;;;;80.97;37.75;;;8.80;99.90;;;;;;5109034;28;20016;-73
2021/12/24 12:02:51;;;;;;;86.00;37.95;;;8.80;99.90;;;;;;5103881;28;20060;-73
2021/12/24 12:05:24;;;;;;;84.40;37.03;;;8.80;99.90;;;;;;5095150;28;20024;-73
2021/12/24 12:07:51;;;;;;;87.47;36.90;;;8.80;99.90;;;;;;5078693;28;20467;-73
2021/12/24 12:10:53;;;;;;;83.50;37.42;;;8.70;99.90;;;;;;5095510;28;20113;-74
2021/12/24 12:19:33;;;;;;;84.47;36.90;;;8.60;99.90;;;;;;5071629;28;20734;-73
2021/12/24 12:25:06;;;;;;;86.75;36.97;;;8.60;99.90;;;;;;5101220;28;20500;-73
2021/12/24 12:27:53;;;;;;;90.50;36.63;;;8.60;99.90;;;;;;5070069;28;20505;-73
2021/12/24 12:30:28;;;;;;;84.80;35.50;;;8.60;99.90;;;;;;5086262;28;20025;-73
2021/12/24 12:33:06;;;;;;;80.88;37.05;;;8.70;99.90;;;;;;5053337;28;20050;-72
2021/12/24 12:35:34;;;;;;;88.63;38.67;;;8.70;99.90;;;;;;5052685;28;20025;-73
2021/12/24 12:38:00;;;;;;;83.03;37.80;;;8.70;99.90;;;;;;5069184;28;20090;-73
2021/12/24 12:40:29;;;;;;;92.10;40.30;;;8.60;99.90;;;;;;5069180;28;20024;-73
2021/12/24 12:43:02;;;;;;;92.60;38.67;;;8.70;99.90;;;;;;5069983;28;20028;-73
2021/12/24 12:48:23;;;;;;;85.65;39.15;;;8.70;99.90;;;;;;5071783;28;20094;-77
2021/12/24 12:50:54;;;;;;;96.05;42.67;;;8.70;99.90;;;;;;5070408;28;20044;-77
2021/12/24 12:53:28;;;;;;;83.35;38.28;;;8.80;99.90;;;;;;5053529;28;20023;-77
2021/12/24 12:56:18;;;;;;;78.40;36.53;;;8.80;99.90;;;;;;5070800;28;20062;-76
2021/12/24 12:58:46;;;;;;;88.60;39.25;;;8.90;99.90;;;;;;5086429;28;20075;-77
2021/12/24 13:01:17;;;;;;;82.53;38.67;;;8.90;99.90;;;;;;5069464;28;20112;-77
2021/12/24 13:09:21;;;;;;;82.57;38.95;;;8.90;99.90;;;;;;5112297;27;20715;-77
2021/12/24 13:11:49;;;;;;;81.00;38.10;;;8.90;99.90;;;;;;5112010;28;20102;-77
2021/12/24 13:14:17;;;;;;;84.43;39.50;;;8.90;99.90;;;;;;5110190;28;20093;-77
2021/12/24 13:16:51;;;;;;;83.25;39.25;;;8.80;99.90;;;;;;5110474;28;20069;-77
2021/12/24 13:22:37;;;;;;;90.18;42.10;;;8.80;99.90;;;;;;5051369;27;20400;-73
2021/12/24 13:25:00;;;;;;;92.65;42.55;;;8.80;99.90;;;;;;5049760;28;20117;-73
2021/12/24 13:27:30;;;;;;;95.18;42.97;;;8.80;99.90;;;;;;5050014;28;20107;-73
2021/12/24 13:30:09;;;;;;;102.38;44.10;;;8.80;99.90;;;;;;5049935;28;20495;-73
2021/12/24 13:32:55;;;;;;;102.95;44.53;;;8.80;99.90;;;;;;5033492;28;20416;-73
2021/12/24 13:35:26;;;;;;;100.15;44.30;;;8.70;99.90;;;;;;5049789;28;20474;-73
2021/12/24 13:37:54;;;;;;;107.28;44.83;;;8.80;99.90;;;;;;5033318;28;20025;-74
2021/12/24 13:40:23;;;;;;;95.72;43.90;;;8.80;99.90;;;;;;5049568;28;20429;-73
2021/12/24 13:42:53;;;;;;;99.45;43.10;;;8.70;99.90;;;;;;5050841;28;20029;-74
2021/12/24 13:45:21;;;;;;;100.00;43.65;;;8.70;99.90;;;;;;5033243;28;20025;-73
2021/12/24 13:47:56;;;;;;;95.00;43.88;;;8.70;99.90;;;;;;5050935;28;20108;-73
2021/12/24 13:54:30;;;;;;;93.28;41.28;;;8.70;99.90;;;;;;5065792;28;20063;-73
2021/12/24 13:55:56;;;;;;;86.35;40.40;;;8.70;99.90;;;;;;5049065;28;20078;-73
2021/12/24 13:58:22;;;;;;;87.78;38.05;;;8.70;99.90;;;;;;5049345;28;20021;-73
2021/12/24 14:00:50;;;;;;;78.03;36.55;;;8.70;99.90;;;;;;5049080;28;20021;-73
2021/12/24 14:03:18;;;;;;;79.75;37.58;;;8.70;99.90;;;;;;5032326;28;20139;-73
2021/12/24 14:05:47;;;;;;;84.05;37.33;;;8.70;99.90;;;;;;5049542;28;20013;-73
2021/12/24 14:08:17;;;;;;;89.40;39.22;;;8.70;99.90;;;;;;5032222;28;20079;-73
2021/12/24 14:10:45;;;;;;;89.07;39.60;;;8.70;99.90;;;;;;5049157;28;20036;-74
2021/12/24 14:13:26;;;;;;;87.95;39.67;;;8.70;99.90;;;;;;5049091;28;20091;-73
2021/12/24 14:16:11;;;;;;;98.47;39.55;;;8.70;99.90;;;;;;5051659;28;20370;-73
2021/12/24 14:18:48;;;;;;;95.32;40.60;;;8.70;99.90;;;;;;5049423;28;20118;-73
2021/12/24 14:24:14;;;;;;;80.70;36.67;;;8.70;99.90;;;;;;5048540;28;20032;-73
2021/12/24 14:27:01;;;;;;;87.25;36.10;;;8.70;99.90;;;;;;5064981;28;20022;-73
2021/12/24 14:29:35;;;;;;;85.93;37.22;;;8.70;99.90;;;;;;5064920;28;20121;-73
2021/12/24 14:32:05;;;;;;;82.35;36.40;;;8.70;99.90;;;;;;5042796;28;20026;-73
2021/12/24 14:34:48;;;;;;;83.00;35.00;;;8.70;99.90;;;;;;5035440;28;20053;-73